createdAt,value
2023-02-22T00:01:19.306Z,41.50
2023-02-22T00:03:53.612Z,26.70
2023-02-22T00:06:25.266Z,30.30
2023-02-22T00:08:53.532Z,26.00
2023-02-22T00:11:21.718Z,24.80
2023-02-22T00:13:50.681Z,24.90
2023-02-22T00:16:21.372Z,35.00
2023-02-22T00:18:50.146Z,68.50
2023-02-22T00:21:18.718Z,34.40
2023-02-22T00:23:48.140Z,31.90
2023-02-22T00:26:19.749Z,31.10
2023-02-22T00:28:51.865Z,36.70
2023-02-22T00:31:21.264Z,42.20
2023-02-22T00:33:50.601Z,53.50
2023-02-22T00:36:18.636Z,93.30
2023-02-22T00:38:46.621Z,41.50
2023-02-22T00:41:16.431Z,35.60
2023-02-22T00:43:44.493Z,32.20
2023-02-22T00:46:14.035Z,99.60
2023-02-22T00:48:42.012Z,36.30
2023-02-22T00:51:10.070Z,56.00
2023-02-22T00:53:37.998Z,36.50
2023-02-22T00:56:06.881Z,43.30
2023-02-22T00:58:34.767Z,35.70
2023-02-22T01:01:02.644Z,35.50
2023-02-22T01:03:32.387Z,33.20
2023-02-22T01:06:00.611Z,29.10
2023-02-22T01:08:31.195Z,28.30
2023-02-22T01:10:59.148Z,53.10
2023-02-22T01:13:27.457Z,39.50
2023-02-22T01:15:56.872Z,72.60
2023-02-22T01:18:25.977Z,33.10
2023-02-22T01:20:54.309Z,32.30
2023-02-22T01:23:22.325Z,40.10
2023-02-22T01:25:50.325Z,42.10
2023-02-22T01:28:18.621Z,34.60
2023-02-22T01:30:46.582Z,32.40
2023-02-22T01:33:16.087Z,34.80
2023-02-22T01:35:46.356Z,30.90
2023-02-22T01:38:14.589Z,40.40
2023-02-22T01:40:46.914Z,29.20
2023-02-22T01:43:27.779Z,25.80
2023-02-22T01:46:08.358Z,46.20
2023-02-22T01:48:47.920Z,38.70
2023-02-22T01:51:19.833Z,30.60
2023-02-22T01:53:53.255Z,32.50
2023-02-22T01:56:23.386Z,35.30
2023-02-22T01:58:56.915Z,30.80
2023-02-22T02:01:26.360Z,24.40
2023-02-22T02:03:58.348Z,27.40
2023-02-22T02:06:31.338Z,28.60
2023-02-22T02:09:01.235Z,31.30
2023-02-22T02:11:31.220Z,26.40
2023-02-22T02:14:01.053Z,30.30
2023-02-22T02:16:40.131Z,34.20
2023-02-22T02:19:34.740Z,36.30
2023-02-22T02:22:52.754Z,32.00
2023-02-22T02:26:09.138Z,29.80
2023-02-22T02:28:58.775Z,33.10
2023-02-22T02:31:43.937Z,31.50
2023-02-22T02:34:24.326Z,31.30
2023-02-22T02:37:12.482Z,29.30
2023-02-22T02:40:11.957Z,29.70
2023-02-22T02:42:51.251Z,32.30
2023-02-22T02:45:25.903Z,30.20
2023-02-22T02:47:59.334Z,32.10
2023-02-22T02:50:39.157Z,36.20
2023-02-22T02:53:09.731Z,28.70
2023-02-22T02:55:38.126Z,30.80
2023-02-22T02:58:08.761Z,32.50
2023-02-22T03:00:41.330Z,34.40
2023-02-22T03:03:34.454Z,29.40
2023-02-22T03:06:25.513Z,35.30
2023-02-22T03:09:03.607Z,37.30
2023-02-22T03:12:05.961Z,30.90
2023-02-22T03:14:42.432Z,37.60
2023-02-22T03:17:26.812Z,36.40
2023-02-22T03:20:02.059Z,35.20
2023-02-22T03:22:37.763Z,38.20
2023-02-22T03:25:10.548Z,36.10
2023-02-22T03:27:50.650Z,35.90
2023-02-22T03:30:24.191Z,39.00
2023-02-22T03:33:09.272Z,36.10
2023-02-22T03:35:48.278Z,37.60
2023-02-22T03:38:20.410Z,40.30
2023-02-22T03:40:54.556Z,37.60
2023-02-22T03:43:33.492Z,32.30
2023-02-22T03:46:06.389Z,45.20
2023-02-22T03:49:03.797Z,48.90
2023-02-22T03:51:34.717Z,38.80
2023-02-22T03:54:03.963Z,40.90
2023-02-22T03:56:54.467Z,39.90
2023-02-22T03:59:27.597Z,43.50
2023-02-22T04:01:56.956Z,37.10
2023-02-22T04:04:25.956Z,37.70
2023-02-22T04:06:54.898Z,37.00
2023-02-22T04:09:23.084Z,29.90
2023-02-22T04:11:51.220Z,35.60
2023-02-22T04:14:19.163Z,28.60
2023-02-22T04:16:47.314Z,29.50
2023-02-22T04:19:15.454Z,36.50
2023-02-22T04:21:43.258Z,35.00
2023-02-22T04:24:18.364Z,36.40
2023-02-22T04:26:46.619Z,39.20
2023-02-22T04:29:14.540Z,40.30
2023-02-22T04:31:45.246Z,40.10
2023-02-22T04:34:13.860Z,42.90
2023-02-22T04:36:44.743Z,44.30
2023-02-22T04:39:13.074Z,42.90
2023-02-22T04:41:41.173Z,34.80
2023-02-22T04:44:09.620Z,33.60
2023-02-22T04:46:37.685Z,32.60
2023-02-22T04:49:05.837Z,36.60
2023-02-22T04:51:37.137Z,36.10
2023-02-22T04:54:10.014Z,35.00
2023-02-22T04:56:41.775Z,46.80
2023-02-22T04:59:10.658Z,58.50
2023-02-22T05:01:40.094Z,36.70
2023-02-22T05:04:08.216Z,42.00
2023-02-22T05:06:36.149Z,35.60
2023-02-22T05:09:04.521Z,39.40
2023-02-22T05:11:32.358Z,34.10
2023-02-22T05:14:00.267Z,42.00
2023-02-22T05:16:28.229Z,37.30
2023-02-22T05:18:56.288Z,42.40
2023-02-22T05:21:24.280Z,39.60
2023-02-22T05:23:52.203Z,37.60
2023-02-22T05:26:20.203Z,45.70
2023-02-22T05:28:48.174Z,39.90
2023-02-22T05:31:16.356Z,45.20
2023-02-22T05:33:44.569Z,41.90
2023-02-22T05:36:12.656Z,48.50
2023-02-22T05:38:43.430Z,58.00
2023-02-22T05:41:12.892Z,54.00
2023-02-22T05:43:41.339Z,57.70
2023-02-22T05:46:09.341Z,55.00
2023-02-22T05:48:37.516Z,50.80
2023-02-22T05:51:05.825Z,48.40
2023-02-22T05:53:33.891Z,37.40
2023-02-22T05:56:02.286Z,40.10
2023-02-22T05:58:30.276Z,40.40
2023-02-22T06:00:58.436Z,40.50
2023-02-22T06:03:26.449Z,32.80
2023-02-22T06:05:54.457Z,42.80
2023-02-22T06:08:22.377Z,45.40
2023-02-22T06:10:50.422Z,41.60
2023-02-22T06:13:18.364Z,41.60
2023-02-22T06:15:46.443Z,39.30
2023-02-22T06:18:14.620Z,48.70
2023-02-22T06:20:42.588Z,51.50
2023-02-22T06:23:11.190Z,58.20
2023-02-22T06:25:39.119Z,66.80
2023-02-22T06:28:07.125Z,54.50
2023-02-22T06:30:35.231Z,47.40
2023-02-22T06:33:03.396Z,39.50
2023-02-22T06:35:31.186Z,39.90
2023-02-22T06:37:59.228Z,30.80
2023-02-22T06:40:30.317Z,33.10
2023-02-22T06:42:59.889Z,35.00
2023-02-22T06:45:28.433Z,40.50
2023-02-22T06:47:56.467Z,36.00
2023-02-22T06:50:30.279Z,37.80
2023-02-22T06:52:58.934Z,37.80
2023-02-22T06:55:29.328Z,47.40
2023-02-22T06:57:57.653Z,44.10
2023-02-22T07:00:27.249Z,42.70
2023-02-22T07:02:55.957Z,38.10
2023-02-22T07:05:26.046Z,34.50
2023-02-22T07:07:56.137Z,32.90
2023-02-22T07:10:28.110Z,29.30
2023-02-22T07:12:56.251Z,38.40
2023-02-22T07:15:26.468Z,37.00
2023-02-22T07:17:55.236Z,35.60
2023-02-22T07:20:24.595Z,28.80
2023-02-22T07:22:52.926Z,30.30
2023-02-22T07:25:21.471Z,26.00
2023-02-22T07:27:49.762Z,28.70
2023-02-22T07:30:17.590Z,24.30
2023-02-22T07:32:47.557Z,31.00
2023-02-22T07:35:22.454Z,28.30
2023-02-22T07:37:50.734Z,35.50
2023-02-22T07:40:19.748Z,33.70
2023-02-22T07:42:57.305Z,42.30
2023-02-22T07:45:28.199Z,37.80
2023-02-22T07:47:56.599Z,38.90
2023-02-22T07:50:26.517Z,31.30
2023-02-22T07:52:56.988Z,32.50
2023-02-22T07:55:27.967Z,38.80
2023-02-22T07:58:01.917Z,39.60
2023-02-22T08:00:31.912Z,34.70
2023-02-22T08:03:01.864Z,34.30
2023-02-22T08:05:31.949Z,33.00
2023-02-22T08:08:00.127Z,23.80
2023-02-22T08:10:29.280Z,31.30
2023-02-22T08:12:57.266Z,29.10
2023-02-22T08:15:31.208Z,26.50
2023-02-22T08:18:01.100Z,27.90
2023-02-22T08:20:30.690Z,25.60
2023-02-22T08:22:59.109Z,22.70
2023-02-22T08:25:29.284Z,27.00
2023-02-22T08:28:02.610Z,24.40
2023-02-22T08:30:32.165Z,24.30
2023-02-22T08:33:02.151Z,23.10
2023-02-22T08:35:33.040Z,25.70
2023-02-22T08:38:03.988Z,23.80
2023-02-22T08:40:35.746Z,18.40
2023-02-22T08:43:04.611Z,24.40
2023-02-22T08:45:32.760Z,21.40
2023-02-22T08:48:00.883Z,24.30
2023-02-22T08:50:32.062Z,23.40
2023-02-22T08:53:01.726Z,23.90
2023-02-22T08:55:32.785Z,23.10
2023-02-22T08:58:03.270Z,21.10
2023-02-22T09:00:33.590Z,26.70
2023-02-22T09:03:03.203Z,23.80
2023-02-22T09:05:32.012Z,22.00
2023-02-22T09:08:01.634Z,21.70
2023-02-22T09:10:32.224Z,22.40
2023-02-22T09:13:01.480Z,27.70
2023-02-22T09:15:30.495Z,22.50
2023-02-22T09:17:59.499Z,20.40
2023-02-22T09:20:28.670Z,20.40
2023-02-22T09:22:57.290Z,26.20
2023-02-22T09:25:25.435Z,22.10
2023-02-22T09:27:54.490Z,20.20
2023-02-22T09:30:32.400Z,20.20
2023-02-22T09:33:12.605Z,21.90
2023-02-22T09:35:42.882Z,19.00
2023-02-22T09:38:11.709Z,23.90
2023-02-22T09:40:47.847Z,24.10
2023-02-22T09:43:21.531Z,19.60
2023-02-22T09:46:12.070Z,20.00
2023-02-22T09:49:15.648Z,24.60
2023-02-22T09:52:16.994Z,21.30
2023-02-22T09:54:52.048Z,19.00
2023-02-22T09:57:26.701Z,20.60
2023-02-22T10:00:01.943Z,21.80
2023-02-22T10:03:12.640Z,22.50
2023-02-22T10:05:44.368Z,30.30
2023-02-22T10:08:15.402Z,30.90
2023-02-22T10:10:46.239Z,48.10
2023-02-22T10:13:42.186Z,27.60
2023-02-22T10:16:25.543Z,27.70
2023-02-22T10:19:02.601Z,27.40
2023-02-22T10:21:53.701Z,22.00
2023-02-22T10:24:39.770Z,23.10
2023-02-22T10:27:16.360Z,24.00
2023-02-22T10:29:50.894Z,21.70
2023-02-22T10:32:25.576Z,20.40
2023-02-22T10:34:55.477Z,22.40
2023-02-22T10:37:34.183Z,17.80
2023-02-22T10:40:13.335Z,29.60
2023-02-22T10:42:41.440Z,26.70
2023-02-22T10:45:32.648Z,29.30
2023-02-22T10:48:08.843Z,23.60
2023-02-22T10:53:09.605Z,28.80
2023-02-22T10:56:15.119Z,57.00
2023-02-22T10:58:54.497Z,27.10
2023-02-22T11:01:36.589Z,25.10
2023-02-22T11:04:13.053Z,23.10
2023-02-22T11:06:44.703Z,28.20
2023-02-22T11:09:15.626Z,24.30
2023-02-22T11:11:47.079Z,26.00
2023-02-22T11:14:30.117Z,24.90
2023-02-22T11:16:59.467Z,21.20
2023-02-22T11:19:29.950Z,21.00
2023-02-22T11:22:36.484Z,22.90
2023-02-22T11:25:07.607Z,25.80
2023-02-22T11:27:47.028Z,19.70
2023-02-22T11:30:17.817Z,22.70
2023-02-22T11:32:58.533Z,21.80
2023-02-22T11:35:29.260Z,25.10
2023-02-22T11:38:17.896Z,23.70
2023-02-22T11:40:46.023Z,23.80
2023-02-22T11:43:19.475Z,20.00
2023-02-22T11:46:05.115Z,26.00
2023-02-22T11:51:39.095Z,24.00
2023-02-22T11:54:13.528Z,20.40
2023-02-22T11:56:48.456Z,19.50
2023-02-22T11:59:55.699Z,17.60
2023-02-22T12:02:56.565Z,22.90
2023-02-22T12:05:27.957Z,24.50
2023-02-22T12:08:37.401Z,17.30
2023-02-22T12:11:18.395Z,16.40
2023-02-22T12:13:52.908Z,20.30
2023-02-22T12:16:35.359Z,19.30
2023-02-22T12:19:27.672Z,19.90
2023-02-22T12:22:02.457Z,17.90
2023-02-22T12:24:37.285Z,15.20
2023-02-22T12:27:24.088Z,16.70
2023-02-22T12:30:13.119Z,17.50
2023-02-22T12:32:49.770Z,16.20
2023-02-22T12:35:25.222Z,16.90
2023-02-22T12:37:58.544Z,15.40
2023-02-22T12:40:47.597Z,19.10
2023-02-22T12:43:31.333Z,17.10
2023-02-22T12:46:21.580Z,35.60
2023-02-22T12:49:00.875Z,34.90
2023-02-22T12:51:36.641Z,25.50
2023-02-22T12:54:31.171Z,19.10
2023-02-22T12:57:19.954Z,21.70
2023-02-22T13:00:26.536Z,16.80
2023-02-22T13:03:13.159Z,18.10
2023-02-22T13:05:41.512Z,16.00
2023-02-22T13:08:26.453Z,15.20
2023-02-22T13:11:07.038Z,17.30
2023-02-22T13:13:40.887Z,21.60
2023-02-22T13:16:54.459Z,16.40
2023-02-22T13:19:25.690Z,14.80
2023-02-22T13:22:10.183Z,16.40
2023-02-22T13:25:00.040Z,15.60
2023-02-22T13:27:47.054Z,131.70
2023-02-22T13:30:40.900Z,79.40
2023-02-22T13:33:34.297Z,18.20
2023-02-22T13:36:34.596Z,20.10
2023-02-22T13:39:36.768Z,52.40
2023-02-22T13:42:30.471Z,18.50
2023-02-22T13:45:40.370Z,21.50
2023-02-22T13:48:21.833Z,18.50
2023-02-22T13:51:08.603Z,14.10
2023-02-22T13:53:58.020Z,17.60
2023-02-22T13:56:27.205Z,20.60
2023-02-22T13:58:59.788Z,18.20
2023-02-22T14:01:45.820Z,14.00
2023-02-22T14:04:28.183Z,17.10
2023-02-22T14:07:02.151Z,17.30
2023-02-22T14:10:02.879Z,15.10
2023-02-22T14:12:31.047Z,16.20
2023-02-22T14:15:28.186Z,16.10
2023-02-22T14:17:56.716Z,12.30
2023-02-22T14:20:32.452Z,15.80
2023-02-22T14:23:55.908Z,14.50
2023-02-22T14:26:30.741Z,19.80
2023-02-22T14:29:07.975Z,15.50
2023-02-22T14:31:44.931Z,16.20
2023-02-22T14:34:17.543Z,15.90
2023-02-22T14:36:54.768Z,13.90
2023-02-22T14:39:38.390Z,15.50
2023-02-22T14:42:30.876Z,12.80
2023-02-22T14:45:12.623Z,14.00
2023-02-22T14:47:43.992Z,14.10
2023-02-22T14:50:35.327Z,15.20
2023-02-22T14:53:32.848Z,13.00
2023-02-22T14:56:07.012Z,11.20
2023-02-22T14:58:45.968Z,13.10
2023-02-22T15:01:44.440Z,12.10
2023-02-22T15:04:23.549Z,17.10
2023-02-22T15:09:31.800Z,12.00
2023-02-22T15:12:03.856Z,10.80
2023-02-22T15:14:38.246Z,14.10
2023-02-22T15:17:16.915Z,12.60
2023-02-22T15:19:48.736Z,14.50
2023-02-22T15:22:26.561Z,12.90
2023-02-22T15:24:58.861Z,13.80
2023-02-22T15:27:28.394Z,15.90
2023-02-22T15:29:59.598Z,13.30
2023-02-22T15:32:27.720Z,9.90
2023-02-22T15:34:59.121Z,10.40
2023-02-22T15:37:29.194Z,10.60
2023-02-22T15:40:15.765Z,12.20
2023-02-22T15:42:47.248Z,20.40
2023-02-22T15:45:21.242Z,22.70
2023-02-22T15:47:50.023Z,12.30
2023-02-22T15:50:25.788Z,11.10
2023-02-22T15:53:01.870Z,11.80
2023-02-22T15:55:36.788Z,9.90
2023-02-22T15:58:12.678Z,11.60
2023-02-22T16:00:44.414Z,17.80
2023-02-22T16:03:16.507Z,25.30
2023-02-22T16:05:50.612Z,14.50
2023-02-22T16:08:18.665Z,10.50
2023-02-22T16:11:15.076Z,12.30
2023-02-22T16:13:43.178Z,13.50
2023-02-22T16:16:17.427Z,11.80
2023-02-22T16:18:45.649Z,15.80
2023-02-22T16:21:16.829Z,14.50
2023-02-22T16:23:53.083Z,21.80
2023-02-22T16:26:23.801Z,15.10
2023-02-22T16:29:04.267Z,13.90
2023-02-22T16:31:34.936Z,13.40
2023-02-22T16:34:06.497Z,16.10
2023-02-22T16:36:49.226Z,21.10
2023-02-22T16:39:19.081Z,10.20
2023-02-22T16:41:47.076Z,19.40
2023-02-22T16:44:15.114Z,18.20
2023-02-22T16:46:43.680Z,16.00
2023-02-22T16:49:13.493Z,19.30
2023-02-22T16:51:53.542Z,23.50
2023-02-22T16:54:27.165Z,17.90
2023-02-22T16:56:56.969Z,15.10
2023-02-22T16:59:25.137Z,18.50
2023-02-22T17:01:53.101Z,80.80
2023-02-22T17:04:24.294Z,41.70
2023-02-22T17:06:53.450Z,22.90
2023-02-22T17:09:21.515Z,19.40
2023-02-22T17:11:51.602Z,18.20
2023-02-22T17:14:23.417Z,68.60
2023-02-22T17:16:52.428Z,31.10
2023-02-22T17:19:26.560Z,20.90
2023-02-22T17:21:54.852Z,15.00
2023-02-22T17:24:25.058Z,14.20
2023-02-22T17:26:53.269Z,14.40
2023-02-22T17:29:21.600Z,14.30
2023-02-22T17:31:50.242Z,15.20
2023-02-22T17:34:18.212Z,14.80
2023-02-22T17:36:46.613Z,14.60
2023-02-22T17:39:14.595Z,21.40
2023-02-22T17:41:42.724Z,18.10
2023-02-22T17:44:11.055Z,15.00
2023-02-22T17:46:42.242Z,42.70
2023-02-22T17:49:10.273Z,80.70
2023-02-22T17:51:40.968Z,36.90
2023-02-22T17:54:10.356Z,51.10
2023-02-22T17:56:38.514Z,41.80
2023-02-22T17:59:09.265Z,40.90
2023-02-22T18:01:37.529Z,58.60
2023-02-22T18:04:05.888Z,65.70
2023-02-22T18:06:33.814Z,35.20
2023-02-22T18:09:10.449Z,27.30
2023-02-22T18:11:39.874Z,163.40
2023-02-22T18:14:10.153Z,198.60
2023-02-22T18:16:39.552Z,280.50
2023-02-22T18:19:08.225Z,423.10
2023-02-22T18:21:36.432Z,325.90
2023-02-22T18:24:04.724Z,360.30
2023-02-22T18:26:32.869Z,300.50
2023-02-22T18:29:01.170Z,128.80
2023-02-22T18:31:29.222Z,61.60
2023-02-22T18:33:57.672Z,55.00
2023-02-22T18:36:25.974Z,52.30
2023-02-22T18:38:55.033Z,46.50
2023-02-22T18:41:27.059Z,34.50
2023-02-22T18:43:57.709Z,59.80
2023-02-22T18:46:25.884Z,97.90
2023-02-22T18:48:55.796Z,32.80
2023-02-22T18:51:25.231Z,23.00
2023-02-22T18:53:59.957Z,22.50
2023-02-22T18:56:34.003Z,29.60
2023-02-22T18:59:04.320Z,21.90
2023-02-22T19:01:38.913Z,22.80
2023-02-22T19:04:12.703Z,25.30
2023-02-22T19:06:41.452Z,27.70
2023-02-22T19:09:09.709Z,27.40
2023-02-22T19:11:40.174Z,26.20
2023-02-22T19:14:09.645Z,30.00
2023-02-22T19:16:37.851Z,25.20
2023-02-22T19:19:06.057Z,24.40
2023-02-22T19:21:34.373Z,24.40
2023-02-22T19:24:02.838Z,25.60
2023-02-22T19:26:32.176Z,26.10
2023-02-22T19:29:04.880Z,24.40
2023-02-22T19:31:34.257Z,24.10
2023-02-22T19:34:09.262Z,24.00
2023-02-22T19:36:39.270Z,23.90
2023-02-22T19:39:08.529Z,24.80
2023-02-22T19:41:36.597Z,26.10
2023-02-22T19:44:05.536Z,27.20
2023-02-22T19:46:33.933Z,27.10
2023-02-22T19:49:02.716Z,24.90
2023-02-22T19:51:32.197Z,24.30
2023-02-22T19:54:03.388Z,24.70
2023-02-22T19:56:32.349Z,26.30
2023-02-22T19:59:09.390Z,23.40
2023-02-22T20:01:37.689Z,39.60
2023-02-22T20:04:08.344Z,29.80
2023-02-22T20:06:42.239Z,29.40
2023-02-22T20:09:19.457Z,33.60
2023-02-22T20:11:48.597Z,25.90
2023-02-22T20:14:20.291Z,29.80
2023-02-22T20:16:48.104Z,29.30
2023-02-22T20:19:16.319Z,31.20
2023-02-22T20:21:44.330Z,27.10
2023-02-22T20:24:15.066Z,27.80
2023-02-22T20:26:43.392Z,26.10
2023-02-22T20:29:11.538Z,29.20
2023-02-22T20:31:41.457Z,29.50
2023-02-22T20:34:11.645Z,27.50
2023-02-22T20:36:41.606Z,30.50
2023-02-22T20:39:13.536Z,30.40
2023-02-22T20:41:43.902Z,31.80
2023-02-22T20:44:17.344Z,31.60
2023-02-22T20:46:46.389Z,30.40
2023-02-22T20:49:17.533Z,31.70
2023-02-22T20:51:46.481Z,26.80
2023-02-22T20:54:15.374Z,27.10
2023-02-22T20:56:45.336Z,25.50
2023-02-22T20:59:16.405Z,27.80
2023-02-22T21:01:44.564Z,29.60
2023-02-22T21:04:13.623Z,27.30
2023-02-22T21:06:43.132Z,26.20
2023-02-22T21:09:14.216Z,26.60
2023-02-22T21:11:42.295Z,30.60
2023-02-22T21:14:16.724Z,26.90
2023-02-22T21:16:47.989Z,25.80
2023-02-22T21:19:25.506Z,30.80
2023-02-22T21:21:58.624Z,31.50
2023-02-22T21:24:28.727Z,28.60
2023-02-22T21:26:59.161Z,24.30
2023-02-22T21:29:29.340Z,27.70
2023-02-22T21:31:57.670Z,28.80
2023-02-22T21:34:26.321Z,29.30
2023-02-22T21:36:54.589Z,27.70
2023-02-22T21:39:28.303Z,24.10
2023-02-22T21:42:00.638Z,27.70
2023-02-22T21:44:29.773Z,25.50
2023-02-22T21:46:57.762Z,28.70
2023-02-22T21:49:25.843Z,24.30
2023-02-22T21:51:53.809Z,27.50
2023-02-22T21:54:23.102Z,27.10
2023-02-22T21:56:51.516Z,29.60
2023-02-22T21:59:23.456Z,27.20
2023-02-22T22:01:56.124Z,25.70
2023-02-22T22:04:28.646Z,25.00
2023-02-22T22:06:59.948Z,26.80
2023-02-22T22:09:33.035Z,24.40
2023-02-22T22:12:05.423Z,23.30
2023-02-22T22:14:35.285Z,23.10
2023-02-22T22:17:08.045Z,26.30
2023-02-22T22:19:39.422Z,25.00
2023-02-22T22:22:08.006Z,27.70
2023-02-22T22:24:37.142Z,26.60
2023-02-22T22:27:07.653Z,24.40
2023-02-22T22:29:35.545Z,23.70
2023-02-22T22:32:03.770Z,27.60
2023-02-22T22:34:34.556Z,24.10
2023-02-22T22:37:03.031Z,26.50
2023-02-22T22:39:31.650Z,26.80
2023-02-22T22:41:59.793Z,28.50
2023-02-22T22:44:32.770Z,28.00
2023-02-22T22:47:01.380Z,23.60
2023-02-22T22:49:31.530Z,27.10
2023-02-22T22:51:59.720Z,24.00
2023-02-22T22:54:29.022Z,24.10
2023-02-22T22:56:57.159Z,27.00
2023-02-22T22:59:25.008Z,26.40
2023-02-22T23:01:54.723Z,24.30
2023-02-22T23:04:26.201Z,25.80
2023-02-22T23:06:54.993Z,23.40
2023-02-22T23:09:31.738Z,25.20
2023-02-22T23:12:08.912Z,25.40
2023-02-22T23:14:39.856Z,26.70
2023-02-22T23:17:14.324Z,25.80
2023-02-22T23:19:47.162Z,26.50
2023-02-22T23:22:15.218Z,25.10
2023-02-22T23:24:45.206Z,25.70
2023-02-22T23:27:13.723Z,24.90
2023-02-22T23:29:46.883Z,22.90
2023-02-22T23:32:15.125Z,23.30
2023-02-22T23:34:43.969Z,23.00
2023-02-22T23:37:14.267Z,25.50
2023-02-22T23:39:42.378Z,24.80
2023-02-22T23:42:10.339Z,22.80
2023-02-22T23:44:39.950Z,26.30
2023-02-22T23:47:09.627Z,23.40
2023-02-22T23:49:38.478Z,24.90
2023-02-22T23:52:08.579Z,26.10
2023-02-22T23:54:44.068Z,24.90
2023-02-22T23:57:12.128Z,21.90
2023-02-22T23:59:40.668Z,25.20
